Time;durP1;ratioP1;P1;durP2;ratioP2;P2;SDS_P1;SDS_P2;PMS_P1;PMS_P2;Temp;Humidity;BMP_temperature;BMP_pressure;BME280_temperature;BME280_humidity;BME280_pressure;Samples;Min_cycle;Max_cycle;Signal;HPM_P1;HPM_P2
2023/05/15 00:01:46;;;;;;;21.03;18.83;;;;;;;12.69;100.00;101743.63;4960244;28;20182;-74
2023/05/15 00:04:12;;;;;;;21.27;18.80;;;;;;;12.90;100.00;101765.16;4958015;28;20537;-73
2023/05/15 00:06:37;;;;;;;20.80;18.27;;;;;;;12.82;100.00;101760.75;4956448;28;20241;-73
2023/05/15 00:09:03;;;;;;;20.73;18.50;;;;;;;12.72;100.00;101714.44;4956885;28;20261;-74
2023/05/15 00:11:28;;;;;;;20.57;18.47;;;;;;;12.01;100.00;101622.84;4952974;28;20194;-73
2023/05/15 00:13:54;;;;;;;20.30;18.10;;;;;;;12.65;100.00;101721.63;4952884;28;20190;-73
2023/05/15 00:16:19;;;;;;;21.53;19.23;;;;;;;12.69;100.00;101755.22;4954742;28;20194;-74
2023/05/15 00:18:45;;;;;;;19.80;17.73;;;;;;;12.49;100.00;101749.59;4954758;28;20175;-73
2023/05/15 00:21:11;;;;;;;20.40;18.30;;;;;;;12.85;100.00;101767.63;4950118;28;20194;-73
2023/05/15 00:23:36;;;;;;;19.37;17.37;;;;;;;12.69;100.00;101739.06;4956470;28;20197;-73
2023/05/15 00:26:02;;;;;;;21.03;18.93;;;;;;;12.32;100.00;101670.97;4959509;28;20190;-73
2023/05/15 00:28:27;;;;;;;20.73;18.67;;;;;;;12.58;100.00;101721.56;4960393;28;20242;-73
2023/05/15 00:30:53;;;;;;;19.70;17.60;;;;;;;12.58;100.00;101758.38;4961117;28;20648;-74
2023/05/15 00:33:18;;;;;;;19.90;17.80;;;;;;;12.96;100.00;101753.66;4961196;28;20195;-73
2023/05/15 00:35:44;;;;;;;21.73;19.03;;;;;;;12.34;100.00;101628.56;4961098;28;20217;-73
2023/05/15 00:38:10;;;;;;;21.73;19.53;;;;;;;12.89;100.00;101752.72;4960968;28;20206;-73
2023/05/15 00:40:37;;;;;;;20.27;18.27;;;;;;;12.27;100.00;101659.97;4959791;28;20441;-74
2023/05/15 00:43:04;;;;;;;20.47;18.37;;;;;;;12.65;100.00;101743.16;4958164;28;20449;-73
2023/05/15 00:45:29;;;;;;;21.03;18.83;;;;;;;12.20;100.00;101621.38;4963246;28;20438;-74
2023/05/15 00:47:57;;;;;;;21.10;18.80;;;;;;;12.56;100.00;101695.88;4959004;28;20485;-73
2023/05/15 00:50:23;;;;;;;20.90;18.80;;;;;;;12.34;100.00;101682.38;4958087;28;20241;-74
2023/05/15 00:52:49;;;;;;;21.40;18.70;;;;;;;12.89;100.00;101715.84;4959627;28;20437;-73
2023/05/15 00:55:14;;;;;;;22.00;19.60;;;;;;;12.38;100.00;101705.19;4970114;28;20201;-74
2023/05/15 00:57:42;;;;;;;20.80;18.60;;;;;;;12.01;100.00;101702.69;4954226;28;20473;-73
2023/05/15 01:00:09;;;;;;;21.67;19.37;;;;;;;12.35;100.00;101704.72;4961171;28;20579;-73
2023/05/15 01:02:35;;;;;;;20.97;18.90;;;;;;;12.15;100.00;101691.91;4964601;28;20433;-73
2023/05/15 01:05:02;;;;;;;22.60;20.30;;;;;;;12.50;100.00;101720.81;4963254;28;20425;-73
2023/05/15 01:07:32;;;;;;;20.53;18.33;;;;;;;11.92;100.00;101634.72;4977480;28;20458;-73
2023/05/15 01:09:59;;;;;;;21.37;18.60;;;;;;;11.89;100.00;101718.41;4963355;28;20520;-73
2023/05/15 01:12:26;;;;;;;22.97;20.57;;;;;;;12.38;100.00;101723.19;4963252;28;20451;-73
2023/05/15 01:14:52;;;;;;;22.27;19.87;;;;;;;11.87;100.00;101621.00;4963023;28;20457;-73
2023/05/15 01:17:18;;;;;;;24.37;21.87;;;;;;;12.61;100.00;101725.72;4963279;28;20446;-73
2023/05/15 01:19:45;;;;;;;24.93;21.50;;;;;;;12.24;100.00;101746.41;4963577;28;20425;-73
2023/05/15 01:22:39;;;;;;;29.83;24.20;;;;;;;12.56;100.00;101731.69;4965517;28;20207;-73
2023/05/15 01:25:29;;;;;;;33.43;23.20;;;;;;;12.41;100.00;101738.94;4964074;28;20426;-73
2023/05/15 01:28:01;;;;;;;33.03;26.90;;;;;;;11.99;100.00;101716.28;4963196;28;20505;-73
2023/05/15 01:30:35;;;;;;;31.77;26.57;;;;;;;12.41;100.00;101725.50;4961890;28;20528;-73
2023/05/15 01:33:22;;;;;;;31.17;25.60;;;;;;;12.29;100.00;101722.44;4962765;28;20457;-73
2023/05/15 01:36:20;;;;;;;30.30;24.43;;;;;;;12.12;100.00;101721.00;4956837;28;20548;-73
2023/05/15 01:38:54;;;;;;;29.17;23.80;;;;;;;11.84;100.00;101718.97;4958964;28;20438;-73
2023/05/15 01:41:35;;;;;;;29.57;22.23;;;;;;;11.94;100.00;101711.47;4957576;28;20438;-73
2023/05/15 01:44:07;;;;;;;27.87;22.40;;;;;;;11.44;100.00;101624.34;4960379;28;20437;-73
2023/05/15 01:46:38;;;;;;;27.63;23.57;;;;;;;11.83;100.00;101662.69;4982652;23;20507;-71
2023/05/15 01:49:07;;;;;;;29.07;24.60;;;;;;;10.74;100.00;101493.22;4998540;28;20828;-71
2023/05/15 01:51:35;;;;;;;33.73;26.00;;;;;;;11.48;100.00;101620.25;4996095;28;20440;-71
2023/05/15 01:54:02;;;;;;;31.63;26.07;;;;;;;11.30;100.00;101660.91;4997828;28;20447;-72
2023/05/15 01:56:29;;;;;;;29.60;25.60;;;;;;;12.46;100.00;101731.13;4996801;28;20550;-71
2023/05/15 01:58:56;;;;;;;27.27;23.27;;;;;;;12.47;100.00;101761.56;4997665;28;20437;-71
2023/05/15 02:01:22;;;;;;;30.37;25.60;;;;;;;12.25;100.00;101755.31;4998550;28;20448;-71
2023/05/15 02:03:48;;;;;;;29.43;24.37;;;;;;;11.69;100.00;101683.19;4998307;28;21020;-71
2023/05/15 02:06:14;;;;;;;33.50;26.13;;;;;;;12.14;100.00;101757.44;5002143;28;20518;-71
2023/05/15 02:08:41;;;;;;;33.30;26.17;;;;;;;12.48;100.00;101755.19;5001760;28;20461;-72
2023/05/15 02:11:08;;;;;;;30.53;25.07;;;;;;;11.73;100.00;101673.72;5001059;28;20543;-72
2023/05/15 02:13:34;;;;;;;30.33;24.67;;;;;;;12.26;100.00;101771.25;4997511;28;20450;-71
2023/05/15 02:16:00;;;;;;;29.77;23.67;;;;;;;11.38;100.00;101643.88;5002135;28;20448;-72
2023/05/15 02:18:27;;;;;;;27.53;22.03;;;;;;;11.08;100.00;101665.34;4999476;28;20459;-71
2023/05/15 02:20:52;;;;;;;27.73;21.90;;;;;;;10.63;100.00;101548.16;4998345;28;20721;-72
2023/05/15 02:23:19;;;;;;;32.80;24.60;;;;;;;11.89;100.00;101721.09;4998121;28;20445;-71
2023/05/15 02:26:26;;;;;;;30.47;23.63;;;;;;;11.89;100.00;101754.22;4994979;28;20312;-71
2023/05/15 02:29:13;;;;;;;26.27;21.23;;;;;;;12.08;100.00;101765.44;4987367;28;20559;-72
2023/05/15 02:32:05;;;;;;;26.87;22.10;;;;;;;10.91;100.00;101658.44;5000262;28;20494;-71
2023/05/15 02:35:01;;;;;;;27.67;21.33;;;;;;;11.69;100.00;101753.06;4997499;28;20439;-71
2023/05/15 02:37:30;;;;;;;29.17;23.57;;;;;;;11.43;100.00;101756.19;4994244;28;20517;-71
2023/05/15 02:39:58;;;;;;;29.40;23.87;;;;;;;11.74;100.00;101740.75;4997366;28;20459;-71
2023/05/15 02:42:26;;;;;;;29.80;23.00;;;;;;;11.77;100.00;101740.38;4997689;28;20451;-72
2023/05/15 02:44:53;;;;;;;34.50;25.60;;;;;;;10.98;100.00;101643.28;4996461;28;20476;-72
2023/05/15 02:47:20;;;;;;;32.53;24.33;;;;;;;11.70;100.00;101750.19;4999152;28;20507;-71
2023/05/15 02:49:46;;;;;;;34.07;26.80;;;;;;;11.66;100.00;101753.44;4997836;28;20960;-72
2023/05/15 02:52:12;;;;;;;33.30;25.63;;;;;;;11.50;100.00;101680.03;4998219;28;20530;-71
2023/05/15 02:54:37;;;;;;;35.50;24.87;;;;;;;11.49;100.00;101651.50;4998271;28;20539;-71
2023/05/15 02:57:03;;;;;;;40.87;28.80;;;;;;;11.83;100.00;101719.13;4996561;28;20224;-71
2023/05/15 02:59:28;;;;;;;35.53;26.30;;;;;;;11.29;100.00;101645.00;5000345;28;20190;-71
2023/05/15 03:01:54;;;;;;;38.77;27.90;;;;;;;11.84;100.00;101764.66;4996481;28;20252;-71
2023/05/15 03:04:19;;;;;;;37.00;28.03;;;;;;;10.96;100.00;101658.72;4995686;28;20200;-71
2023/05/15 03:06:45;;;;;;;35.13;26.50;;;;;;;11.14;100.00;101650.34;4996665;28;20258;-71
2023/05/15 03:09:10;;;;;;;41.60;29.37;;;;;;;11.15;100.00;101643.97;4997460;28;20650;-71
2023/05/15 03:11:36;;;;;;;35.73;26.60;;;;;;;11.59;100.00;101698.75;4996809;28;20313;-71
2023/05/15 03:14:01;;;;;;;35.90;27.47;;;;;;;10.77;100.00;101617.13;4995935;28;20245;-71
2023/05/15 03:16:27;;;;;;;33.40;27.63;;;;;;;11.43;100.00;101722.09;4996041;28;21943;-71
2023/05/15 03:18:53;;;;;;;31.13;24.83;;;;;;;10.51;100.00;101589.84;4996735;28;20236;-72
2023/05/15 03:21:19;;;;;;;31.30;25.50;;;;;;;10.81;100.00;101582.72;4997029;28;20966;-71
2023/05/15 03:23:44;;;;;;;30.80;24.57;;;;;;;11.68;100.00;101717.28;4999487;28;20304;-71
2023/05/15 03:26:10;;;;;;;31.27;24.13;;;;;;;10.86;100.00;101585.69;4997051;28;20351;-71
2023/05/15 03:28:36;;;;;;;26.80;22.23;;;;;;;11.24;100.00;101701.09;4998422;28;20215;-71
2023/05/15 03:31:03;;;;;;;23.83;20.67;;;;;;;11.73;100.00;101722.09;4999525;28;20444;-71
2023/05/15 03:33:29;;;;;;;23.90;20.43;;;;;;;10.90;100.00;101607.63;4996291;28;20181;-71
2023/05/15 03:35:55;;;;;;;25.00;21.23;;;;;;;11.42;100.00;101666.66;5015260;28;20947;-72
2023/05/15 03:38:20;;;;;;;24.80;20.50;;;;;;;11.15;100.00;101691.47;5015752;28;20436;-71
2023/05/15 03:40:45;;;;;;;24.57;20.30;;;;;;;10.83;100.00;101592.25;5000408;28;20235;-72
2023/05/15 03:43:11;;;;;;;28.17;23.47;;;;;;;11.38;100.00;101643.88;5003354;28;20590;-71
2023/05/15 03:45:38;;;;;;;27.60;22.57;;;;;;;11.20;100.00;101595.09;5000866;28;20216;-71
2023/05/15 03:48:04;;;;;;;25.53;21.67;;;;;;;11.63;100.00;101700.03;4999410;28;20209;-71
2023/05/15 03:50:29;;;;;;;26.70;21.73;;;;;;;11.04;100.00;101591.53;4998803;28;20535;-71
2023/05/15 03:52:55;;;;;;;26.13;22.33;;;;;;;10.96;100.00;101617.63;5004036;28;20428;-72
2023/05/15 03:55:20;;;;;;;28.33;23.13;;;;;;;11.52;100.00;101667.25;5003413;28;20591;-71
2023/05/15 03:57:46;;;;;;;25.33;21.40;;;;;;;10.99;100.00;101634.22;5000562;28;20205;-71
2023/05/15 04:00:12;;;;;;;24.83;20.47;;;;;;;11.41;100.00;101680.31;5002506;28;20185;-71
2023/05/15 04:02:39;;;;;;;24.17;21.10;;;;;;;11.39;100.00;101664.34;5004823;28;20726;-71
2023/05/15 04:05:05;;;;;;;21.93;18.83;;;;;;;11.54;100.00;101684.03;4998164;28;20436;-71
2023/05/15 04:07:32;;;;;;;26.30;20.90;;;;;;;11.50;100.00;101693.44;4998651;28;20996;-71
2023/05/15 04:10:00;;;;;;;28.30;22.33;;;;;;;11.55;100.00;101703.66;5003059;28;20452;-72
2023/05/15 04:12:31;;;;;;;28.57;22.40;;;;;;;10.97;100.00;101663.09;5002222;28;20442;-72
2023/05/15 04:15:15;;;;;;;27.20;20.90;;;;;;;11.44;100.00;101693.38;5000190;28;20438;-72
2023/05/15 04:17:45;;;;;;;25.53;20.20;;;;;;;11.39;100.00;101660.84;5001267;28;20518;-71
2023/05/15 04:20:13;;;;;;;24.73;20.13;;;;;;;11.50;100.00;101706.88;5005037;28;20447;-71
2023/05/15 04:22:38;;;;;;;26.40;20.77;;;;;;;11.50;100.00;101677.34;5002499;28;21120;-71
2023/05/15 04:25:04;;;;;;;23.10;20.27;;;;;;;11.40;100.00;101636.50;5003737;28;20467;-72
2023/05/15 04:27:30;;;;;;;27.30;21.00;;;;;;;11.55;100.00;101663.34;5001433;28;20309;-72
2023/05/15 04:29:55;;;;;;;27.27;20.40;;;;;;;10.83;100.00;101584.19;5002452;28;20332;-72
2023/05/15 04:32:20;;;;;;;25.80;19.47;;;;;;;11.25;100.00;101659.78;4996679;28;20181;-72
2023/05/15 04:34:46;;;;;;;26.33;20.83;;;;;;;10.71;100.00;101611.66;5002226;28;20186;-71
2023/05/15 04:37:12;;;;;;;27.90;20.77;;;;;;;10.74;100.00;101624.72;5002356;28;20252;-72
2023/05/15 04:39:37;;;;;;;23.40;19.93;;;;;;;11.20;100.00;101694.44;5002937;28;20625;-72
2023/05/15 04:42:03;;;;;;;26.07;20.60;;;;;;;10.90;100.00;101627.25;5000626;28;20185;-72
2023/05/15 04:44:28;;;;;;;29.13;22.17;;;;;;;11.18;100.00;101648.97;4998368;28;20190;-72
2023/05/15 04:46:54;;;;;;;27.57;21.60;;;;;;;10.73;100.00;101540.69;4995520;28;20470;-72
2023/05/15 04:49:19;;;;;;;28.50;23.00;;;;;;;10.74;100.00;101581.78;5001154;28;20244;-72
2023/05/15 04:51:45;;;;;;;27.20;22.70;;;;;;;11.34;100.00;101657.84;5001330;28;20217;-72
2023/05/15 04:54:10;;;;;;;28.27;22.63;;;;;;;10.34;100.00;101504.16;5002417;28;20193;-72
2023/05/15 04:56:36;;;;;;;27.17;21.70;;;;;;;11.67;100.00;101674.47;5002655;28;20598;-72
2023/05/15 04:59:01;;;;;;;27.97;22.33;;;;;;;11.13;100.00;101613.75;5003832;28;20677;-70
2023/05/15 05:01:28;;;;;;;28.00;20.80;;;;;;;10.98;100.00;101629.03;4998891;28;20714;-71
2023/05/15 05:03:53;;;;;;;23.53;19.60;;;;;;;11.53;100.00;101701.13;5001816;28;20186;-71
2023/05/15 05:06:18;;;;;;;22.80;19.90;;;;;;;11.62;100.00;101701.06;5003380;28;21946;-71
2023/05/15 05:08:44;;;;;;;26.00;20.57;;;;;;;11.21;100.00;101628.97;5004198;28;20197;-71
2023/05/15 05:11:09;;;;;;;21.43;18.30;;;;;;;11.44;100.00;101685.31;5001405;28;20189;-71
2023/05/15 05:13:35;;;;;;;21.20;18.53;;;;;;;11.02;100.00;101649.97;5002044;28;20189;-71
2023/05/15 05:16:00;;;;;;;22.27;18.60;;;;;;;11.00;100.00;101632.38;5003284;28;20189;-71
2023/05/15 05:18:26;;;;;;;20.60;17.40;;;;;;;10.46;100.00;101563.56;5004631;28;20174;-71
2023/05/15 05:21:01;;;;;;;21.80;18.30;;;;;;;11.04;100.00;101669.38;5001954;28;20638;-71
2023/05/15 05:23:28;;;;;;;23.80;19.37;;;;;;;11.30;100.00;101714.63;5003210;28;20189;-71
2023/05/15 05:25:53;;;;;;;25.40;21.00;;;;;;;10.58;100.00;101607.72;5002743;28;20512;-71
2023/05/15 05:28:18;;;;;;;26.30;19.73;;;;;;;11.62;100.00;101734.13;4998939;28;20451;-71
2023/05/15 05:30:45;;;;;;;25.37;20.30;;;;;;;11.56;100.00;101750.16;4998603;28;20565;-71
2023/05/15 05:33:11;;;;;;;28.87;22.40;;;;;;;11.45;100.00;101685.09;4998005;28;20236;-72
2023/05/15 05:35:37;;;;;;;26.13;20.10;;;;;;;11.09;100.00;101677.75;5002292;28;21049;-71
2023/05/15 05:38:02;;;;;;;22.40;17.77;;;;;;;10.52;100.00;101626.38;4998921;28;20198;-71
2023/05/15 05:40:28;;;;;;;22.13;17.17;;;;;;;11.01;100.00;101669.75;4998532;28;20177;-71
2023/05/15 05:42:53;;;;;;;19.20;17.00;;;;;;;11.45;100.00;101756.81;4997855;28;20243;-71
2023/05/15 05:45:19;;;;;;;20.47;17.70;;;;;;;10.61;100.00;101642.22;4999029;28;20193;-72
2023/05/15 05:47:45;;;;;;;18.23;16.30;;;;;;;11.56;100.00;101753.69;5002898;28;20588;-71
2023/05/15 05:50:10;;;;;;;18.90;16.17;;;;;;;10.71;100.00;101646.53;4996037;28;20872;-71
2023/05/15 05:52:36;;;;;;;18.60;16.60;;;;;;;11.41;100.00;101780.53;4999958;28;20193;-71
2023/05/15 05:55:02;;;;;;;19.73;16.07;;;;;;;10.65;100.00;101623.13;4997266;28;20194;-72
2023/05/15 05:57:27;;;;;;;17.70;15.90;;;;;;;10.96;100.00;101706.22;4998976;28;20197;-72
2023/05/15 05:59:53;;;;;;;18.70;16.80;;;;;;;10.59;100.00;101612.09;4999891;28;20221;-71
2023/05/15 06:02:18;;;;;;;19.53;17.43;;;;;;;10.96;100.00;101692.78;4996467;28;20189;-72
2023/05/15 06:04:44;;;;;;;19.90;17.80;;;;;;;10.83;100.00;101653.16;4998149;28;20194;-71
2023/05/15 06:07:10;;;;;;;20.40;18.23;;;;;;;11.24;100.00;101738.69;5000329;28;20220;-71
2023/05/15 06:09:35;;;;;;;21.27;19.07;;;;;;;10.70;100.00;101621.53;5000824;28;20517;-71
2023/05/15 06:12:03;;;;;;;22.10;19.80;;;;;;;10.44;100.00;101624.59;4994301;28;20661;-71
2023/05/15 06:14:29;;;;;;;22.93;20.53;;;;;;;10.56;100.00;101668.78;4995042;28;20700;-72
2023/05/15 06:16:54;;;;;;;24.70;21.73;;;;;;;11.04;100.00;101669.38;4996637;28;20460;-72
2023/05/15 06:19:20;;;;;;;22.90;20.00;;;;;;;10.81;100.00;101663.22;4995488;28;20713;-71
2023/05/15 06:21:46;;;;;;;23.20;20.80;;;;;;;11.46;100.00;101761.19;5003385;28;20189;-71
2023/05/15 06:24:11;;;;;;;25.93;20.87;;;;;;;11.13;100.00;101731.91;4996094;28;20505;-71
2023/05/15 06:26:37;;;;;;;23.37;21.07;;;;;;;11.07;100.00;101684.31;4997381;28;20197;-72
2023/05/15 06:29:03;;;;;;;21.73;19.33;;;;;;;10.87;100.00;101641.03;4998353;28;20209;-71
2023/05/15 06:31:28;;;;;;;22.13;19.93;;;;;;;11.15;100.00;101704.88;4998440;28;20220;-72
2023/05/15 06:33:53;;;;;;;22.20;20.00;;;;;;;10.88;100.00;101647.22;4996291;28;20599;-72
2023/05/15 06:36:19;;;;;;;22.13;19.73;;;;;;;11.11;100.00;101680.25;4997508;28;20310;-72
2023/05/15 06:38:45;;;;;;;21.70;19.40;;;;;;;10.81;100.00;101642.56;4998988;28;20184;-71
2023/05/15 06:41:10;;;;;;;21.07;18.80;;;;;;;11.24;100.00;101706.47;5000669;28;20181;-71
2023/05/15 06:43:36;;;;;;;19.83;16.90;;;;;;;11.57;100.00;101747.31;5000031;28;20215;-72
2023/05/15 06:46:01;;;;;;;20.47;17.83;;;;;;;10.67;100.00;101659.47;4999451;28;20192;-72
2023/05/15 06:48:27;;;;;;;17.80;16.00;;;;;;;11.22;100.00;101682.47;4998280;28;20928;-71
2023/05/15 06:50:52;;;;;;;19.73;17.63;;;;;;;11.80;100.00;101757.13;4997526;28;20190;-72
2023/05/15 06:53:19;;;;;;;18.50;16.37;;;;;;;11.80;100.00;101744.53;4998289;28;20668;-72
2023/05/15 06:55:45;;;;;;;17.67;15.87;;;;;;;12.12;100.00;101761.34;4995395;28;20654;-72
2023/05/15 06:58:11;;;;;;;18.47;16.67;;;;;;;11.62;100.00;101668.81;4994938;28;20602;-72
2023/05/15 07:00:36;;;;;;;19.37;17.27;;;;;;;11.47;100.00;101683.06;4994806;28;20186;-73
2023/05/15 07:03:02;;;;;;;19.83;17.83;;;;;;;11.13;100.00;101604.88;4993671;28;20379;-72
2023/05/15 07:05:27;;;;;;;18.73;16.93;;;;;;;10.97;100.00;101555.72;4997660;28;20224;-72
2023/05/15 07:07:53;;;;;;;18.83;16.87;;;;;;;11.99;100.00;101711.75;4999952;28;20208;-72
2023/05/15 07:10:19;;;;;;;19.87;17.13;;;;;;;11.27;100.00;101604.88;5000331;28;20190;-72
2023/05/15 07:12:44;;;;;;;18.30;16.50;;;;;;;11.50;100.00;101716.81;4997140;28;20547;-72
2023/05/15 07:15:10;;;;;;;17.20;15.40;;;;;;;11.66;100.00;101676.34;4999978;28;20733;-72
2023/05/15 07:17:36;;;;;;;16.93;15.07;;;;;;;11.37;100.00;101619.88;4987847;28;20200;-72
2023/05/15 07:20:02;;;;;;;15.80;14.30;;;;;;;12.41;100.00;101757.78;4997591;28;20642;-72
2023/05/15 07:22:30;;;;;;;19.60;17.60;;;;;;;11.93;100.00;101674.84;4997641;28;20217;-72
2023/05/15 07:24:55;;;;;;;18.57;16.70;;;;;;;11.36;100.00;101576.09;4993324;28;20863;-72
2023/05/15 07:27:21;;;;;;;18.17;16.27;;;;;;;12.11;100.00;101717.47;4999348;28;20259;-72
2023/05/15 07:29:46;;;;;;;16.20;14.50;;;;;;;12.50;100.00;101740.53;4996882;28;20185;-72
2023/05/15 07:32:12;;;;;;;14.90;13.50;;;;;;;12.62;100.00;101757.00;4995295;28;20764;-73
2023/05/15 07:34:37;;;;;;;15.90;14.30;;;;;;;11.80;100.00;101647.75;4990234;28;20186;-72
2023/05/15 07:37:03;;;;;;;15.50;13.60;;;;;;;11.75;100.00;101601.81;4992271;28;20208;-72
2023/05/15 07:39:29;;;;;;;13.13;11.93;;;;;;;11.87;100.00;101603.03;5002578;28;20284;-72
2023/05/15 07:41:55;;;;;;;12.73;11.43;;;;;;;11.18;100.00;101484.34;4997489;28;20658;-73
2023/05/15 07:44:20;;;;;;;12.50;11.17;;;;;;;11.81;100.00;101562.59;4998409;28;20254;-72
2023/05/15 07:46:46;;;;;;;12.87;11.57;;;;;;;12.44;100.00;101661.38;4996400;28;20631;-73
2023/05/15 07:49:12;;;;;;;14.93;12.77;;;;;;;13.03;100.00;101730.28;4994475;28;20205;-72
2023/05/15 07:51:37;;;;;;;12.60;11.33;;;;;;;12.73;100.00;101681.13;4992829;28;20194;-72
2023/05/15 07:54:03;;;;;;;12.03;10.83;;;;;;;13.01;100.00;101724.25;4990242;28;20189;-72
2023/05/15 07:56:29;;;;;;;12.33;11.13;;;;;;;12.39;100.00;101623.47;4990647;28;20270;-72
2023/05/15 07:58:54;;;;;;;12.63;11.33;;;;;;;13.00;100.00;101682.19;4996636;28;20212;-73
2023/05/15 08:01:20;;;;;;;11.83;10.73;;;;;;;13.01;100.00;101685.72;4997680;28;20189;-72
2023/05/15 08:03:45;;;;;;;12.30;11.20;;;;;;;13.19;100.00;101734.59;4994877;28;20717;-72
2023/05/15 08:06:11;;;;;;;11.43;10.40;;;;;;;11.67;100.00;101497.94;4995033;28;20207;-72
2023/05/15 08:08:36;;;;;;;11.03;10.13;;;;;;;13.15;100.00;101727.06;4990917;28;20205;-72
2023/05/15 08:11:02;;;;;;;10.23;9.33;;;;;;;12.76;100.00;101666.47;4988141;28;20189;-72
2023/05/15 08:13:27;;;;;;;11.87;10.77;;;;;;;12.25;100.00;101573.22;4995966;28;20305;-72
2023/05/15 08:15:53;;;;;;;11.60;9.60;;;;;;;11.58;100.00;101457.97;4996999;28;20196;-72
2023/05/15 08:18:19;;;;;;;11.87;9.13;;;;;;;12.25;100.00;101542.81;4988409;28;20838;-73
2023/05/15 08:20:44;;;;;;;9.43;8.53;;;;;;;13.41;100.00;101718.41;4993131;28;20213;-72
2023/05/15 08:23:10;;;;;;;9.57;8.67;;;;;;;12.87;100.00;101642.53;4996430;28;20193;-72
2023/05/15 08:25:35;;;;;;;8.37;7.57;;;;;;;12.95;100.00;101644.25;4994833;28;20669;-72
2023/05/15 08:28:01;;;;;;;7.97;7.17;;;;;;;12.75;100.00;101601.00;4997403;28;20246;-72
2023/05/15 08:30:30;;;;;;;7.53;6.70;;;;;;;12.49;100.00;101522.75;4994046;28;20193;-71
2023/05/15 08:32:55;;;;;;;6.23;5.63;;;;;;;13.25;100.00;101642.25;5007919;28;20174;-72
2023/05/15 08:35:21;;;;;;;7.37;6.13;;;;;;;13.44;100.00;101688.38;4992068;28;20474;-73
2023/05/15 08:37:47;;;;;;;7.37;6.00;;;;;;;12.72;100.00;101555.63;4997596;28;20212;-73
2023/05/15 08:40:12;;;;;;;9.27;5.90;;;;;;;13.48;100.00;101646.50;4996865;28;20542;-71
2023/05/15 08:42:51;;;;;;;5.13;4.60;;;;;;;13.59;100.00;101659.44;4997842;28;20196;-72
2023/05/15 08:45:18;;;;;;;5.73;5.23;;;;;;;13.25;100.00;101582.97;5003207;28;20204;-71
2023/05/15 08:47:43;;;;;;;5.20;4.70;;;;;;;13.50;100.00;101628.28;5000540;28;20471;-72
2023/05/15 08:50:14;;;;;;;5.33;4.40;;;;;;;13.66;100.00;101616.34;5004020;28;20449;-71
2023/05/15 08:52:45;;;;;;;5.40;4.90;;;;;;;13.88;100.00;101679.06;5017663;28;20657;-71
2023/05/15 08:55:12;;;;;;;5.77;5.17;;;;;;;13.27;100.00;101550.44;5004436;28;20571;-71
2023/05/15 08:57:38;;;;;;;5.77;4.57;;;;;;;13.10;100.00;101513.03;5003344;28;20559;-71
2023/05/15 09:00:07;;;;;;;5.13;4.03;;;;;;;13.90;100.00;101647.34;5000862;28;20804;-71
2023/05/15 09:02:35;;;;;;;5.30;4.77;;;;;;;13.28;100.00;101547.56;5001442;28;20452;-72
2023/05/15 09:05:01;;;;;;;5.73;5.13;;;;;;;12.87;100.00;101488.22;5004972;28;20443;-71
2023/05/15 09:07:28;;;;;;;8.77;6.00;;;;;;;12.87;100.00;101469.38;5003216;28;20457;-72
2023/05/15 09:09:55;;;;;;;6.03;5.43;;;;;;;11.91;100.00;101295.16;4996953;28;20459;-72
2023/05/15 09:12:23;;;;;;;8.27;4.57;;;;;;;13.42;100.00;101520.66;5003154;28;20538;-72
2023/05/15 09:14:48;;;;;;;6.10;5.40;;;;;;;12.83;100.00;101447.41;5006012;28;20444;-73
2023/05/15 09:17:14;;;;;;;7.30;4.97;;;;;;;13.02;100.00;101463.88;5000883;28;20467;-73
2023/05/15 09:19:41;;;;;;;7.07;5.20;;;;;;;14.15;100.00;101635.00;4998446;28;20670;-72
2023/05/15 09:22:19;;;;;;;6.63;5.20;;;;;;;14.10;100.00;101599.72;4998415;28;20273;-73
2023/05/15 09:24:47;;;;;;;6.67;5.17;;;;;;;14.17;100.00;101583.53;5004687;28;20518;-73
2023/05/15 09:27:12;;;;;;;7.63;4.70;;;;;;;14.15;100.00;101582.91;5003377;28;22430;-73
2023/05/15 09:29:38;;;;;;;12.00;5.80;;;;;;;14.08;100.00;101555.91;5005799;28;20945;-72
2023/05/15 09:32:08;;;;;;;6.30;5.43;;;;;;;14.38;100.00;101610.34;5003313;28;20745;-72
2023/05/15 09:34:39;;;;;;;5.27;4.77;;;;;;;13.93;100.00;101512.94;5001904;28;20949;-72
2023/05/15 09:37:06;;;;;;;5.37;4.87;;;;;;;14.64;100.00;101620.38;5005694;28;20461;-73
2023/05/15 09:39:38;;;;;;;5.10;4.60;;;;;;;14.17;100.00;101537.66;5003338;28;20439;-73
2023/05/15 09:42:09;;;;;;;6.40;5.03;;;;;;;13.64;100.00;101486.31;5002786;28;20433;-73
2023/05/15 09:44:40;;;;;;;8.00;5.47;;;;;;;14.01;100.00;101607.16;4996545;28;20451;-73
2023/05/15 09:47:06;;;;;;;6.77;5.47;;;;;;;13.06;100.00;101447.13;5003887;28;20588;-72
2023/05/15 09:49:31;;;;;;;4.30;3.90;;;;;;;13.91;100.00;101550.06;5001754;28;20637;-73
2023/05/15 09:51:58;;;;;;;5.47;4.00;;;;;;;14.04;100.00;101529.56;5002811;28;20435;-73
2023/05/15 09:54:26;;;;;;;4.93;4.43;;;;;;;13.04;100.00;101346.81;5001330;28;20177;-73
2023/05/15 09:56:52;;;;;;;4.70;4.30;;;;;;;14.58;100.00;101598.75;5006617;28;21104;-73
2023/05/15 09:59:20;;;;;;;7.13;5.30;;;;;;;13.70;100.00;101494.41;5002335;28;20511;-73
2023/05/15 10:01:48;;;;;;;5.20;4.70;;;;;;;13.67;100.00;101475.13;5002377;28;20416;-72
2023/05/15 10:04:14;;;;;;;5.87;5.30;;;;;;;13.87;100.00;101450.91;4987361;28;21028;-72
2023/05/15 10:06:42;;;;;;;8.20;5.60;;;;;;;13.74;100.00;101446.31;4989913;28;20468;-73
2023/05/15 10:09:09;;;;;;;7.03;5.43;;;;;;;13.38;100.00;101390.88;5001170;28;20562;-72
2023/05/15 10:11:40;;;;;;;5.27;4.53;;;;;;;13.12;100.00;101292.78;4995807;28;20514;-73
2023/05/15 10:14:08;;;;;;;5.53;5.03;;;;;;;13.28;100.00;101358.13;4997401;28;20941;-73
2023/05/15 10:16:35;;;;;;;5.83;5.33;;;;;;;14.39;100.00;101593.13;4996455;28;20464;-73
2023/05/15 10:19:03;;;;;;;6.20;4.43;;;;;;;14.28;100.00;101534.34;5000237;28;20435;-73
2023/05/15 10:21:32;;;;;;;4.47;4.17;;;;;;;14.23;100.00;101481.03;5001078;28;20482;-73
2023/05/15 10:23:59;;;;;;;7.40;5.57;;;;;;;14.20;100.00;101459.84;5004111;28;20489;-72
2023/05/15 10:26:38;;;;;;;5.20;4.70;;;;;;;14.27;100.00;101459.03;4996709;28;20463;-73
2023/05/15 10:29:24;;;;;;;4.73;4.23;;;;;;;14.45;100.00;101508.63;4992298;28;20546;-73
2023/05/15 10:31:51;;;;;;;8.10;5.37;;;;;;;14.98;100.00;101577.16;5002616;28;20863;-73
2023/05/15 10:34:17;;;;;;;5.37;4.87;;;;;;;14.34;100.00;101451.75;4988045;28;20444;-73
2023/05/15 10:36:44;;;;;;;7.33;5.67;;;;;;;13.55;100.00;101446.06;4992504;28;20528;-74
2023/05/15 10:39:10;;;;;;;6.20;4.53;;;;;;;14.56;100.00;101531.50;4991830;28;20436;-73
2023/05/15 10:41:38;;;;;;;4.90;4.40;;;;;;;14.88;100.00;101564.91;5007661;28;20449;-73
2023/05/15 10:44:04;;;;;;;5.40;4.90;;;;;;;14.70;100.00;101540.44;4995738;28;21010;-73
2023/05/15 10:46:33;;;;;;;4.77;4.33;;;;;;;14.24;100.00;101506.97;4996170;28;20472;-73
2023/05/15 10:49:00;;;;;;;6.33;4.27;;;;;;;14.46;100.00;101552.63;4992115;28;20480;-73
2023/05/15 10:51:31;;;;;;;6.43;5.00;;;;;;;13.54;100.00;101430.94;4994725;28;20440;-73
2023/05/15 10:54:00;;;;;;;7.30;4.20;;;;;;;14.54;100.00;101578.63;4990665;28;20534;-73
2023/05/15 10:56:28;;;;;;;4.77;4.00;;;;;;;14.72;100.00;101568.03;4994885;28;20460;-73
2023/05/15 10:58:54;;;;;;;4.30;3.90;;;;;;;14.99;100.00;101566.16;4988020;28;20535;-73
2023/05/15 11:01:26;;;;;;;4.27;3.80;;;;;;;14.47;100.00;101557.84;4992261;28;21031;-72
2023/05/15 11:04:07;;;;;;;5.30;4.80;;;;;;;14.29;100.00;101503.66;4993780;28;20312;-73
2023/05/15 11:06:33;;;;;;;5.40;4.90;;;;;;;14.55;100.00;101564.94;4993820;28;20964;-73